Rina Amoretti — IBRR — position and weather

sailwx.info

Track history (hours):
 
Tides and Currents Weather Stations Pressure Air Temp Water Temp Dewpoint Dewpoint Depression Visibility Wind Speed Wind Dir Waves Ship Positions

Rina Amoretti

Last reported at 2015-Sep-01 12:29 UTC. Time now 2015-Sep-02 19:03 UTC.
Position N 37°13' E 015°12'.

Length 120 m; draft 6.5 m.

Type: Ship (hazmat cat A). MMSI: 247197000.

Date/timePositionNaut miles runAvg speedWind from/ knotsBaromVisibWave heightAir tempDewpointWater temp
2015-Sep-01 12:29N 37°13' E 015°12'0 0.0
2015-Sep-01 11:17N 37°13' E 015°12'0 0.0
2015-Sep-01 09:17N 37°13' E 015°12'0 0.0
2015-Sep-01 08:32N 37°13' E 015°12'0 0.1
2015-Sep-01 07:08N 37°13' E 015°12'3 0.9
2015-Sep-01 03:27N 37°12' E 015°16'1314.9
2015-Sep-01 02:33N 37°24' E 015°22'1515.1
2015-Sep-01 01:33N 37°39' E 015°26'1515.1
2015-Sep-01 00:33N 37°53' E 015°31'1514.7
2015-Aug-31 23:34N 38°08' E 015°35'1313.1
2015-Aug-31 22:33N 38°20' E 015°40'1414.4
2015-Aug-31 21:33N 38°33' E 015°32'1514.5
2015-Aug-31 20:33N 38°47' E 015°24'1514.6
2015-Aug-31 19:32N 38°60' E 015°16'1514.6
2015-Aug-31 18:31N 39°13' E 015°06'1414.6
2015-Aug-31 17:33N 39°25' E 014°57'1514.5
2015-Aug-31 16:34N 39°38' E 014°48'1414.3
2015-Aug-31 15:34N 39°50' E 014°39'1414.3
2015-Aug-31 14:33N 40°03' E 014°30'1414.5
2015-Aug-31 13:33N 40°15' E 014°20'1515.1
2015-Aug-31 12:33N 40°28' E 014°11'1313.5
2015-Aug-31 11:34N 40°42' E 014°14'9 8.5
2015-Aug-31 10:30N 40°50' E 014°18'0 0.0
2015-Aug-31 09:33N 40°50' E 014°18'0 0.0
2015-Aug-31 08:33N 40°50' E 014°18'0 0.0
2015-Aug-31 07:33N 40°50' E 014°18'0 0.0
2015-Aug-31 06:33N 40°50' E 014°18'0 0.0
2015-Aug-31 05:33N 40°50' E 014°18'0 0.0
2015-Aug-31 04:33N 40°50' E 014°18'0 0.0
2015-Aug-31 03:33N 40°50' E 014°18'0 0.0
2015-Aug-31 02:32N 40°50' E 014°18'0 0.0
2015-Aug-31 01:26N 40°50' E 014°18'0 0.0
2015-Aug-31 00:32N 40°50' E 014°18'0 0.0
2015-Aug-30 23:32N 40°50' E 014°18'0 0.0
2015-Aug-30 22:32N 40°50' E 014°18'0 0.0
2015-Aug-30 21:29N 40°50' E 014°18'0 0.0
2015-Aug-30 20:32N 40°50' E 014°18'0 0.0
2015-Aug-30 19:32N 40°50' E 014°18'0 0.0
2015-Aug-30 18:29N 40°50' E 014°18'0 0.0
2015-Aug-30 17:32N 40°50' E 014°18'0 0.0
2015-Aug-30 16:32N 40°50' E 014°18'0 0.0
2015-Aug-30 15:32N 40°50' E 014°18'2 1.6
2015-Aug-30 14:34N 40°49' E 014°19'1 0.6
2015-Aug-30 13:32N 40°49' E 014°19'0 0.0
2015-Aug-30 12:29N 40°49' E 014°19'0 0.0
2015-Aug-30 11:32N 40°49' E 014°19'0 0.0
2015-Aug-30 10:32N 40°49' E 014°19'0 0.0
2015-Aug-30 09:29N 40°49' E 014°19'0 0.0
2015-Aug-30 08:32N 40°49' E 014°19'0 0.1
2015-Aug-30 07:32N 40°49' E 014°19'0 0.0
2015-Aug-30 06:29N 40°48' E 014°19'0 0.0
2015-Aug-30 05:32N 40°48' E 014°19'0 0.0
2015-Aug-30 04:32N 40°48' E 014°19'0 0.0
2015-Aug-30 03:32N 40°49' E 014°19'0 0.0
2015-Aug-30 02:32N 40°49' E 014°19'0 0.0
2015-Aug-30 01:32N 40°49' E 014°19'0 0.0
2015-Aug-30 00:29N 40°49' E 014°19'0 0.0
2015-Aug-29 23:32N 40°49' E 014°19'0 0.1
2015-Aug-29 22:32N 40°49' E 014°19'0 0.0
2015-Aug-29 21:29N 40°49' E 014°19'0 0.0
2015-Aug-29 20:32N 40°49' E 014°19'0 0.0
2015-Aug-29 19:32N 40°49' E 014°19'0 0.0
2015-Aug-29 18:32N 40°49' E 014°19'0 0.0
2015-Aug-29 17:32N 40°48' E 014°19'0 0.0
2015-Aug-29 16:32N 40°49' E 014°19'0 0.0
2015-Aug-29 15:26N 40°49' E 014°19'0 0.0
2015-Aug-29 14:26N 40°49' E 014°19'0 0.0
2015-Aug-29 13:32N 40°49' E 014°19'0 0.0
2015-Aug-29 12:31N 40°49' E 014°19'0 0.0
2015-Aug-29 11:28N 40°49' E 014°19'0 0.0
2015-Aug-29 10:31N 40°49' E 014°19'0 0.0
2015-Aug-29 09:31N 40°49' E 014°19'0 0.0
2015-Aug-29 08:31N 40°49' E 014°19'0 0.0
2015-Aug-29 07:31N 40°49' E 014°19'0 0.0
2015-Aug-29 06:28N 40°48' E 014°19'0 0.1
2015-Aug-29 05:31N 40°49' E 014°19'7 7.5
2015-Aug-29 04:33N 40°42' E 014°14'1313.3
2015-Aug-29 03:33N 40°29' E 014°10'1414.0
2015-Aug-29 02:33N 40°17' E 014°19'1414.2
2015-Aug-29 01:33N 40°05' E 014°28'1414.0
2015-Aug-29 00:33N 39°52' E 014°36'1413.9
2015-Aug-28 23:33N 39°41' E 014°46'1413.7
2015-Aug-28 22:33N 39°29' E 014°55'1913.8
2015-Aug-28 21:12N 39°13' E 015°07'1413.8
2015-Aug-28 20:11N 39°00' E 015°16'913.8
2015-Aug-28 19:33N 38°53' E 015°21'1313.2
2015-Aug-28 18:33N 38°41' E 015°28'1313.3
2015-Aug-28 17:33N 38°29' E 015°36'1313.5
2015-Aug-28 16:33N 38°17' E 015°42'1313.1
2015-Aug-28 15:34N 38°05' E 015°35'1515.0
2015-Aug-28 14:33N 37°50' E 015°30'1414.3
2015-Aug-28 13:33N 37°36' E 015°26'1414.3
2015-Aug-28 12:33N 37°23' E 015°21'20 0.7
2015-Aug-27 08:29N 37°42' E 015°27'1415.1
2015-Aug-27 07:33N 37°56' E 015°31'1615.7
2015-Aug-27 06:33N 38°11' E 015°36'9 8.8
2015-Aug-27 05:33N 38°20' E 015°32'1514.5
2015-Aug-27 04:32N 38°18' E 015°14'1414.2
2015-Aug-27 03:33N 38°17' E 014°56'5814.1
2015-Aug-26 23:25N 38°12' E 013°42'1112.5
2015-Aug-26 22:33N 38°09' E 013°29'3 2.7
2015-Aug-26 21:19N 38°06' E 013°26'0 0.0
2015-Aug-26 20:25N 38°06' E 013°26'0 0.0
2015-Aug-26 19:25N 38°06' E 013°26'0 0.0
2015-Aug-26 18:25N 38°06' E 013°26'0 0.0
2015-Aug-26 17:28N 38°06' E 013°26'0 0.0
2015-Aug-26 16:28N 38°06' E 013°26'0 0.0
2015-Aug-26 15:28N 38°06' E 013°26'0 0.0
2015-Aug-26 14:28N 38°06' E 013°26'0 0.0
2015-Aug-26 13:31N 38°06' E 013°26'0 0.0
2015-Aug-26 12:31N 38°06' E 013°26'0 0.0
2015-Aug-26 11:31N 38°06' E 013°26'0 0.0
2015-Aug-26 10:28N 38°06' E 013°26'0 0.0
2015-Aug-26 09:31N 38°06' E 013°26'0 0.0
2015-Aug-26 08:34N 38°06' E 013°26'0 0.0
2015-Aug-26 07:34N 38°06' E 013°26'0 0.0
2015-Aug-26 06:33N 38°06' E 013°26'2 1.6
2015-Aug-26 05:33N 38°07' E 013°28'1 1.5
2015-Aug-26 04:33N 38°08' E 013°29'5410.4
2015-Aug-25 23:22N 38°15' E 014°37'1011.1
2015-Aug-25 22:30N 38°16' E 014°49'1111.3
2015-Aug-25 21:33N 38°17' E 015°02'1211.5
2015-Aug-25 20:33N 38°19' E 015°17'1212.0
2015-Aug-25 19:33N 38°20' E 015°32'8 8.2
2015-Aug-25 18:33N 38°15' E 015°40'1312.7
2015-Aug-25 17:34N 38°03' E 015°35'1212.2
2015-Aug-25 16:33N 37°51' E 015°31'2912.3
2015-Aug-25 14:13N 37°24' E 015°21'1012.9
2015-Aug-25 13:26N 37°14' E 015°18'  
Track history (hours):
 
Tides and Currents Weather Stations Pressure Air Temp Water Temp Dewpoint Dewpoint Depression Visibility Wind Speed Wind Dir Waves Ship Positions

Rina Amoretti

Last reported at 2015-Sep-01 12:29 UTC. Time now 2015-Sep-02 19:03 UTC.
Position N 37°13' E 015°12'.

Length 120 m; draft 6.5 m.

Type: Ship (hazmat cat A). MMSI: 247197000.

Date/timePositionNaut miles runAvg speedWind from/ knotsBaromVisibWave heightAir tempDewpointWater temp
2015-Sep-01 12:29N 37°13' E 015°12'0 0.0
2015-Sep-01 11:17N 37°13' E 015°12'0 0.0
2015-Sep-01 09:17N 37°13' E 015°12'0 0.0
2015-Sep-01 08:32N 37°13' E 015°12'0 0.1
2015-Sep-01 07:08N 37°13' E 015°12'3 0.9
2015-Sep-01 03:27N 37°12' E 015°16'1314.9
2015-Sep-01 02:33N 37°24' E 015°22'1515.1
2015-Sep-01 01:33N 37°39' E 015°26'1515.1
2015-Sep-01 00:33N 37°53' E 015°31'1514.7
2015-Aug-31 23:34N 38°08' E 015°35'1313.1
2015-Aug-31 22:33N 38°20' E 015°40'1414.4
2015-Aug-31 21:33N 38°33' E 015°32'1514.5
2015-Aug-31 20:33N 38°47' E 015°24'1514.6
2015-Aug-31 19:32N 38°60' E 015°16'1514.6
2015-Aug-31 18:31N 39°13' E 015°06'1414.6
2015-Aug-31 17:33N 39°25' E 014°57'1514.5
2015-Aug-31 16:34N 39°38' E 014°48'1414.3
2015-Aug-31 15:34N 39°50' E 014°39'1414.3
2015-Aug-31 14:33N 40°03' E 014°30'1414.5
2015-Aug-31 13:33N 40°15' E 014°20'1515.1
2015-Aug-31 12:33N 40°28' E 014°11'1313.5
2015-Aug-31 11:34N 40°42' E 014°14'9 8.5
2015-Aug-31 10:30N 40°50' E 014°18'0 0.0
2015-Aug-31 09:33N 40°50' E 014°18'0 0.0
2015-Aug-31 08:33N 40°50' E 014°18'0 0.0
2015-Aug-31 07:33N 40°50' E 014°18'0 0.0
2015-Aug-31 06:33N 40°50' E 014°18'0 0.0
2015-Aug-31 05:33N 40°50' E 014°18'0 0.0
2015-Aug-31 04:33N 40°50' E 014°18'0 0.0
2015-Aug-31 03:33N 40°50' E 014°18'0 0.0
2015-Aug-31 02:32N 40°50' E 014°18'0 0.0
2015-Aug-31 01:26N 40°50' E 014°18'0 0.0
2015-Aug-31 00:32N 40°50' E 014°18'0 0.0
2015-Aug-30 23:32N 40°50' E 014°18'0 0.0
2015-Aug-30 22:32N 40°50' E 014°18'0 0.0
2015-Aug-30 21:29N 40°50' E 014°18'0 0.0
2015-Aug-30 20:32N 40°50' E 014°18'0 0.0
2015-Aug-30 19:32N 40°50' E 014°18'0 0.0
2015-Aug-30 18:29N 40°50' E 014°18'0 0.0
2015-Aug-30 17:32N 40°50' E 014°18'0 0.0
2015-Aug-30 16:32N 40°50' E 014°18'0 0.0
2015-Aug-30 15:32N 40°50' E 014°18'2 1.6
2015-Aug-30 14:34N 40°49' E 014°19'1 0.6
2015-Aug-30 13:32N 40°49' E 014°19'0 0.0
2015-Aug-30 12:29N 40°49' E 014°19'0 0.0
2015-Aug-30 11:32N 40°49' E 014°19'0 0.0
2015-Aug-30 10:32N 40°49' E 014°19'0 0.0
2015-Aug-30 09:29N 40°49' E 014°19'0 0.0
2015-Aug-30 08:32N 40°49' E 014°19'0 0.1
2015-Aug-30 07:32N 40°49' E 014°19'0 0.0
2015-Aug-30 06:29N 40°48' E 014°19'0 0.0
2015-Aug-30 05:32N 40°48' E 014°19'0 0.0
2015-Aug-30 04:32N 40°48' E 014°19'0 0.0
2015-Aug-30 03:32N 40°49' E 014°19'0 0.0
2015-Aug-30 02:32N 40°49' E 014°19'0 0.0
2015-Aug-30 01:32N 40°49' E 014°19'0 0.0
2015-Aug-30 00:29N 40°49' E 014°19'0 0.0
2015-Aug-29 23:32N 40°49' E 014°19'0 0.1
2015-Aug-29 22:32N 40°49' E 014°19'0 0.0
2015-Aug-29 21:29N 40°49' E 014°19'0 0.0
2015-Aug-29 20:32N 40°49' E 014°19'0 0.0
2015-Aug-29 19:32N 40°49' E 014°19'0 0.0
2015-Aug-29 18:32N 40°49' E 014°19'0 0.0
2015-Aug-29 17:32N 40°48' E 014°19'0 0.0
2015-Aug-29 16:32N 40°49' E 014°19'0 0.0
2015-Aug-29 15:26N 40°49' E 014°19'0 0.0
2015-Aug-29 14:26N 40°49' E 014°19'0 0.0
2015-Aug-29 13:32N 40°49' E 014°19'0 0.0
2015-Aug-29 12:31N 40°49' E 014°19'0 0.0
2015-Aug-29 11:28N 40°49' E 014°19'0 0.0
2015-Aug-29 10:31N 40°49' E 014°19'0 0.0
2015-Aug-29 09:31N 40°49' E 014°19'0 0.0
2015-Aug-29 08:31N 40°49' E 014°19'0 0.0
2015-Aug-29 07:31N 40°49' E 014°19'0 0.0
2015-Aug-29 06:28N 40°48' E 014°19'0 0.1
2015-Aug-29 05:31N 40°49' E 014°19'7 7.5
2015-Aug-29 04:33N 40°42' E 014°14'1313.3
2015-Aug-29 03:33N 40°29' E 014°10'1414.0
2015-Aug-29 02:33N 40°17' E 014°19'1414.2
2015-Aug-29 01:33N 40°05' E 014°28'1414.0
2015-Aug-29 00:33N 39°52' E 014°36'1413.9
2015-Aug-28 23:33N 39°41' E 014°46'1413.7
2015-Aug-28 22:33N 39°29' E 014°55'1913.8
2015-Aug-28 21:12N 39°13' E 015°07'1413.8
2015-Aug-28 20:11N 39°00' E 015°16'913.8
2015-Aug-28 19:33N 38°53' E 015°21'1313.2
2015-Aug-28 18:33N 38°41' E 015°28'1313.3
2015-Aug-28 17:33N 38°29' E 015°36'1313.5
2015-Aug-28 16:33N 38°17' E 015°42'1313.1
2015-Aug-28 15:34N 38°05' E 015°35'1515.0
2015-Aug-28 14:33N 37°50' E 015°30'1414.3
2015-Aug-28 13:33N 37°36' E 015°26'1414.3
2015-Aug-28 12:33N 37°23' E 015°21'20 0.7
2015-Aug-27 08:29N 37°42' E 015°27'1415.1
2015-Aug-27 07:33N 37°56' E 015°31'1615.7
2015-Aug-27 06:33N 38°11' E 015°36'9 8.8
2015-Aug-27 05:33N 38°20' E 015°32'1514.5
2015-Aug-27 04:32N 38°18' E 015°14'1414.2
2015-Aug-27 03:33N 38°17' E 014°56'5814.1
2015-Aug-26 23:25N 38°12' E 013°42'1112.5
2015-Aug-26 22:33N 38°09' E 013°29'3 2.7
2015-Aug-26 21:19N 38°06' E 013°26'0 0.0
2015-Aug-26 20:25N 38°06' E 013°26'0 0.0
2015-Aug-26 19:25N 38°06' E 013°26'0 0.0
2015-Aug-26 18:25N 38°06' E 013°26'0 0.0
2015-Aug-26 17:28N 38°06' E 013°26'0 0.0
2015-Aug-26 16:28N 38°06' E 013°26'0 0.0
2015-Aug-26 15:28N 38°06' E 013°26'0 0.0
2015-Aug-26 14:28N 38°06' E 013°26'0 0.0
2015-Aug-26 13:31N 38°06' E 013°26'0 0.0
2015-Aug-26 12:31N 38°06' E 013°26'0 0.0
2015-Aug-26 11:31N 38°06' E 013°26'0 0.0
2015-Aug-26 10:28N 38°06' E 013°26'0 0.0
2015-Aug-26 09:31N 38°06' E 013°26'0 0.0
2015-Aug-26 08:34N 38°06' E 013°26'0 0.0
2015-Aug-26 07:34N 38°06' E 013°26'0 0.0
2015-Aug-26 06:33N 38°06' E 013°26'2 1.6
2015-Aug-26 05:33N 38°07' E 013°28'1 1.5
2015-Aug-26 04:33N 38°08' E 013°29'5410.4
2015-Aug-25 23:22N 38°15' E 014°37'1011.1
2015-Aug-25 22:30N 38°16' E 014°49'1111.3
2015-Aug-25 21:33N 38°17' E 015°02'1211.5
2015-Aug-25 20:33N 38°19' E 015°17'1212.0
2015-Aug-25 19:33N 38°20' E 015°32'8 8.2
2015-Aug-25 18:33N 38°15' E 015°40'1312.7
2015-Aug-25 17:34N 38°03' E 015°35'1212.2
2015-Aug-25 16:33N 37°51' E 015°31'2912.3
2015-Aug-25 14:13N 37°24' E 015°21'1012.9
2015-Aug-25 13:26N 37°14' E 015°18'  

Dump ship's entire track history